sensor_id;sensor_type;location;lat;lon;timestamp;pressure;altitude;pressure_sealevel;temperature;humidity
3206;BME280;1615;53.602;11.418;2024-03-17T00:02:16;101793.94;;;7.41;100.00
3206;BME280;1615;53.602;11.418;2024-03-17T00:04:42;101719.16;;;7.04;100.00
3206;BME280;1615;53.602;11.418;2024-03-17T00:07:07;101764.84;;;7.30;100.00
3206;BME280;1615;53.602;11.418;2024-03-17T00:09:33;101790.16;;;7.42;100.00
3206;BME280;1615;53.602;11.418;2024-03-17T00:11:58;101785.53;;;7.42;100.00
3206;BME280;1615;53.602;11.418;2024-03-17T00:14:25;101780.41;;;7.46;100.00
3206;BME280;1615;53.602;11.418;2024-03-17T00:16:52;101746.09;;;7.17;100.00
3206;BME280;1615;53.602;11.418;2024-03-17T00:19:17;101783.88;;;7.41;100.00
3206;BME280;1615;53.602;11.418;2024-03-17T00:21:43;101772.47;;;7.28;100.00
3206;BME280;1615;53.602;11.418;2024-03-17T00:24:09;101801.56;;;7.39;100.00
3206;BME280;1615;53.602;11.418;2024-03-17T00:26:35;101792.63;;;7.27;100.00
3206;BME280;1615;53.602;11.418;2024-03-17T00:29:00;101748.31;;;7.03;99.79
3206;BME280;1615;53.602;11.418;2024-03-17T00:31:25;101802.41;;;7.39;100.00
3206;BME280;1615;53.602;11.418;2024-03-17T00:33:53;101721.13;;;6.92;100.00
3206;BME280;1615;53.602;11.418;2024-03-17T00:36:19;101810.50;;;7.51;100.00
3206;BME280;1615;53.602;11.418;2024-03-17T00:38:44;101803.91;;;7.47;100.00
3206;BME280;1615;53.602;11.418;2024-03-17T00:41:09;101813.31;;;7.56;100.00
3206;BME280;1615;53.602;11.418;2024-03-17T00:43:35;101817.63;;;7.52;100.00
3206;BME280;1615;53.602;11.418;2024-03-17T00:46:00;101794.47;;;7.38;100.00
3206;BME280;1615;53.602;11.418;2024-03-17T00:48:25;101822.56;;;7.55;100.00
3206;BME280;1615;53.602;11.418;2024-03-17T00:50:57;101755.28;;;7.11;100.00
3206;BME280;1615;53.602;11.418;2024-03-17T00:53:23;101826.38;;;7.54;100.00
3206;BME280;1615;53.602;11.418;2024-03-17T00:55:55;101831.84;;;7.54;100.00
3206;BME280;1615;53.602;11.418;2024-03-17T00:58:24;101823.56;;;7.49;100.00
3206;BME280;1615;53.602;11.418;2024-03-17T01:00:49;101831.84;;;7.54;100.00
3206;BME280;1615;53.602;11.418;2024-03-17T01:03:15;101814.63;;;7.37;100.00
3206;BME280;1615;53.602;11.418;2024-03-17T01:05:41;101846.56;;;7.53;100.00
3206;BME280;1615;53.602;11.418;2024-03-17T01:08:08;101784.19;;;7.12;100.00
3206;BME280;1615;53.602;11.418;2024-03-17T01:10:37;101802.41;;;7.39;100.00
3206;BME280;1615;53.602;11.418;2024-03-17T01:13:03;101812.31;;;7.45;100.00
3206;BME280;1615;53.602;11.418;2024-03-17T01:15:28;101691.13;;;6.75;100.00
3206;BME280;1615;53.602;11.418;2024-03-17T01:17:54;101810.50;;;7.51;100.00
3206;BME280;1615;53.602;11.418;2024-03-17T01:20:19;101834.50;;;7.65;99.97
3206;BME280;1615;53.602;11.418;2024-03-17T01:22:44;101843.50;;;7.66;99.21
3206;BME280;1615;53.602;11.418;2024-03-17T01:25:10;101836.72;;;7.68;99.55
3206;BME280;1615;53.602;11.418;2024-03-17T01:27:35;101829.75;;;7.61;99.56
3206;BME280;1615;53.602;11.418;2024-03-17T01:30:01;101843.41;;;7.61;100.00
3206;BME280;1615;53.602;11.418;2024-03-17T01:32:26;101805.59;;;7.36;100.00
3206;BME280;1615;53.602;11.418;2024-03-17T01:34:51;101835.78;;;7.46;100.00
3206;BME280;1615;53.602;11.418;2024-03-17T01:37:17;101832.97;;;7.41;100.00
3206;BME280;1615;53.602;11.418;2024-03-17T01:39:42;101785.81;;;6.96;100.00
3206;BME280;1615;53.602;11.418;2024-03-17T01:42:07;101833.84;;;7.14;100.00
3206;BME280;1615;53.602;11.418;2024-03-17T01:44:33;101829.78;;;7.00;100.00
3206;BME280;1615;53.602;11.418;2024-03-17T01:46:58;101864.69;;;7.03;100.00
3206;BME280;1615;53.602;11.418;2024-03-17T01:49:26;101826.34;;;6.93;100.00
3206;BME280;1615;53.602;11.418;2024-03-17T01:51:52;101842.88;;;7.03;100.00
3206;BME280;1615;53.602;11.418;2024-03-17T01:54:18;101775.19;;;6.55;100.00
3206;BME280;1615;53.602;11.418;2024-03-17T01:56:44;101800.25;;;6.69;100.00
3206;BME280;1615;53.602;11.418;2024-03-17T01:59:10;101763.75;;;6.42;100.00
3206;BME280;1615;53.602;11.418;2024-03-17T02:01:38;101814.00;;;6.74;100.00
3206;BME280;1615;53.602;11.418;2024-03-17T02:04:05;101853.53;;;6.88;100.00
3206;BME280;1615;53.602;11.418;2024-03-17T02:06:31;101841.28;;;6.90;100.00
3206;BME280;1615;53.602;11.418;2024-03-17T02:08:56;101810.59;;;6.67;100.00
3206;BME280;1615;53.602;11.418;2024-03-17T02:11:30;101844.53;;;6.76;100.00
3206;BME280;1615;53.602;11.418;2024-03-17T02:13:56;101824.22;;;6.67;100.00
3206;BME280;1615;53.602;11.418;2024-03-17T02:16:22;101790.13;;;6.53;100.00
3206;BME280;1615;53.602;11.418;2024-03-17T02:18:48;101843.56;;;6.82;100.00
3206;BME280;1615;53.602;11.418;2024-03-17T02:21:14;101841.09;;;6.80;100.00
3206;BME280;1615;53.602;11.418;2024-03-17T02:23:43;101812.38;;;6.61;99.77
3206;BME280;1615;53.602;11.418;2024-03-17T02:26:09;101851.91;;;6.75;99.75
3206;BME280;1615;53.602;11.418;2024-03-17T02:28:41;101846.19;;;6.77;100.00
3206;BME280;1615;53.602;11.418;2024-03-17T02:31:08;101766.41;;;6.25;100.00
3206;BME280;1615;53.602;11.418;2024-03-17T02:33:33;101815.72;;;6.52;100.00
3206;BME280;1615;53.602;11.418;2024-03-17T02:35:59;101842.31;;;6.73;100.00
3206;BME280;1615;53.602;11.418;2024-03-17T02:38:24;101825.31;;;6.54;100.00
3206;BME280;1615;53.602;11.418;2024-03-17T02:41:08;101839.47;;;6.68;100.00
3206;BME280;1615;53.602;11.418;2024-03-17T02:43:34;101825.66;;;6.58;100.00
3206;BME280;1615;53.602;11.418;2024-03-17T02:45:59;101751.66;;;6.10;100.00
3206;BME280;1615;53.602;11.418;2024-03-17T02:48:24;101817.84;;;6.50;100.00
3206;BME280;1615;53.602;11.418;2024-03-17T02:50:50;101606.03;;;5.22;100.00
3206;BME280;1615;53.602;11.418;2024-03-17T02:53:15;101849.59;;;6.56;100.00
3206;BME280;1615;53.602;11.418;2024-03-17T02:55:41;101848.66;;;6.39;100.00
3206;BME280;1615;53.602;11.418;2024-03-17T02:58:06;101820.84;;;6.25;100.00
3206;BME280;1615;53.602;11.418;2024-03-17T03:00:31;101835.88;;;6.28;100.00
3206;BME280;1615;53.602;11.418;2024-03-17T03:02:57;101843.47;;;6.26;100.00
3206;BME280;1615;53.602;11.418;2024-03-17T03:05:22;101503.25;;;4.04;100.00
3206;BME280;1615;53.602;11.418;2024-03-17T03:07:47;101865.50;;;6.24;100.00
3206;BME280;1615;53.602;11.418;2024-03-17T03:10:13;101842.56;;;6.09;100.00
3206;BME280;1615;53.602;11.418;2024-03-17T03:12:38;101872.13;;;6.17;100.00
3206;BME280;1615;53.602;11.418;2024-03-17T03:15:04;101822.44;;;5.87;100.00
3206;BME280;1615;53.602;11.418;2024-03-17T03:17:29;101813.91;;;5.83;100.00
3206;BME280;1615;53.602;11.418;2024-03-17T03:19:54;101852.34;;;5.98;100.00
3206;BME280;1615;53.602;11.418;2024-03-17T03:22:20;101861.38;;;5.99;100.00
3206;BME280;1615;53.602;11.418;2024-03-17T03:24:47;101858.84;;;5.86;100.00
3206;BME280;1615;53.602;11.418;2024-03-17T03:27:12;101880.41;;;5.99;100.00
3206;BME280;1615;53.602;11.418;2024-03-17T03:29:38;101885.72;;;5.94;100.00
3206;BME280;1615;53.602;11.418;2024-03-17T03:32:04;101849.25;;;5.72;100.00
3206;BME280;1615;53.602;11.418;2024-03-17T03:34:29;101864.84;;;5.76;100.00
3206;BME280;1615;53.602;11.418;2024-03-17T03:36:54;101879.47;;;5.82;100.00
3206;BME280;1615;53.602;11.418;2024-03-17T03:39:21;101806.72;;;5.25;100.00
3206;BME280;1615;53.602;11.418;2024-03-17T03:41:46;101858.09;;;5.56;100.00
3206;BME280;1615;53.602;11.418;2024-03-17T03:44:12;101879.63;;;5.69;100.00
3206;BME280;1615;53.602;11.418;2024-03-17T03:46:38;101844.81;;;5.48;100.00
3206;BME280;1615;53.602;11.418;2024-03-17T03:49:03;101876.69;;;5.70;100.00
3206;BME280;1615;53.602;11.418;2024-03-17T03:51:29;101901.88;;;5.66;100.00
3206;BME280;1615;53.602;11.418;2024-03-17T03:53:54;101885.16;;;5.62;100.00
3206;BME280;1615;53.602;11.418;2024-03-17T03:56:19;101876.91;;;5.57;100.00
3206;BME280;1615;53.602;11.418;2024-03-17T03:58:45;101901.13;;;5.59;100.00
3206;BME280;1615;53.602;11.418;2024-03-17T04:01:11;101861.72;;;5.38;100.00
3206;BME280;1615;53.602;11.418;2024-03-17T04:03:37;101794.50;;;4.75;100.00
3206;BME280;1615;53.602;11.418;2024-03-17T04:08:29;101875.53;;;5.25;100.00
3206;BME280;1615;53.602;11.418;2024-03-17T04:10:55;101885.78;;;5.23;100.00
3206;BME280;1615;53.602;11.418;2024-03-17T04:13:20;101878.31;;;5.19;100.00
3206;BME280;1615;53.602;11.418;2024-03-17T04:15:46;101660.03;;;3.84;100.00
3206;BME280;1615;53.602;11.418;2024-03-17T04:18:11;101904.84;;;5.35;100.00
3206;BME280;1615;53.602;11.418;2024-03-17T04:20:36;101894.28;;;5.27;100.00
3206;BME280;1615;53.602;11.418;2024-03-17T04:23:02;101737.06;;;4.30;100.00
3206;BME280;1615;53.602;11.418;2024-03-17T04:25:28;101876.97;;;5.10;100.00
3206;BME280;1615;53.602;11.418;2024-03-17T04:27:53;101873.97;;;5.00;100.00
3206;BME280;1615;53.602;11.418;2024-03-17T04:30:19;101900.06;;;5.19;100.00
3206;BME280;1615;53.602;11.418;2024-03-17T04:32:44;101889.75;;;5.09;100.00
3206;BME280;1615;53.602;11.418;2024-03-17T04:35:10;101644.50;;;3.55;100.00
3206;BME280;1615;53.602;11.418;2024-03-17T04:37:35;101884.25;;;4.98;100.00
3206;BME280;1615;53.602;11.418;2024-03-17T04:40:04;101751.38;;;4.19;100.00
3206;BME280;1615;53.602;11.418;2024-03-17T04:42:34;101895.03;;;5.04;100.00
3206;BME280;1615;53.602;11.418;2024-03-17T04:44:59;101884.69;;;4.95;100.00
3206;BME280;1615;53.602;11.418;2024-03-17T04:47:25;101900.09;;;5.01;100.00
3206;BME280;1615;53.602;11.418;2024-03-17T04:49:50;101858.94;;;4.68;100.00
3206;BME280;1615;53.602;11.418;2024-03-17T04:52:15;101882.59;;;4.79;100.00
3206;BME280;1615;53.602;11.418;2024-03-17T04:54:41;101906.69;;;4.93;100.00
3206;BME280;1615;53.602;11.418;2024-03-17T04:57:08;101918.38;;;4.94;100.00
3206;BME280;1615;53.602;11.418;2024-03-17T04:59:34;101910.91;;;4.89;100.00
3206;BME280;1615;53.602;11.418;2024-03-17T05:02:00;101915.50;;;4.89;100.00
3206;BME280;1615;53.602;11.418;2024-03-17T05:04:25;101920.56;;;4.85;100.00
3206;BME280;1615;53.602;11.418;2024-03-17T05:06:51;101916.41;;;4.83;100.00
3206;BME280;1615;53.602;11.418;2024-03-17T05:09:16;101855.09;;;4.39;100.00
3206;BME280;1615;53.602;11.418;2024-03-17T05:11:42;101890.78;;;4.61;100.00
3206;BME280;1615;53.602;11.418;2024-03-17T05:14:08;101888.66;;;4.63;100.00
3206;BME280;1615;53.602;11.418;2024-03-17T05:16:34;101918.25;;;4.71;100.00
3206;BME280;1615;53.602;11.418;2024-03-17T05:18:59;101906.63;;;4.64;100.00
3206;BME280;1615;53.602;11.418;2024-03-17T05:21:25;101906.63;;;4.64;100.00
3206;BME280;1615;53.602;11.418;2024-03-17T05:23:51;101920.97;;;4.71;100.00
3206;BME280;1615;53.602;11.418;2024-03-17T05:26:16;101917.88;;;4.67;100.00
3206;BME280;1615;53.602;11.418;2024-03-17T05:28:42;101920.06;;;4.59;100.00
3206;BME280;1615;53.602;11.418;2024-03-17T05:31:08;101987.66;;;4.67;100.00
3206;BME280;1615;53.602;11.418;2024-03-17T05:33:34;101916.56;;;4.52;100.00
3206;BME280;1615;53.602;11.418;2024-03-17T05:36:01;101942.53;;;4.66;100.00
3206;BME280;1615;53.602;11.418;2024-03-17T05:38:29;101933.84;;;4.57;100.00
3206;BME280;1615;53.602;11.418;2024-03-17T05:41:05;101949.25;;;4.63;100.00
3206;BME280;1615;53.602;11.418;2024-03-17T05:43:37;101955.06;;;4.67;100.00
3206;BME280;1615;53.602;11.418;2024-03-17T05:46:12;101934.28;;;4.54;100.00
3206;BME280;1615;53.602;11.418;2024-03-17T05:48:41;101933.00;;;4.57;100.00
3206;BME280;1615;53.602;11.418;2024-03-17T05:51:07;101973.63;;;4.70;100.00
3206;BME280;1615;53.602;11.418;2024-03-17T05:53:34;101937.09;;;4.66;100.00
3206;BME280;1615;53.602;11.418;2024-03-17T05:56:00;101969.69;;;4.84;100.00
3206;BME280;1615;53.602;11.418;2024-03-17T05:58:26;101896.22;;;4.43;100.00
3206;BME280;1615;53.602;11.418;2024-03-17T06:00:51;101906.91;;;4.56;100.00
3206;BME280;1615;53.602;11.418;2024-03-17T06:03:17;101912.50;;;4.61;100.00
3206;BME280;1615;53.602;11.418;2024-03-17T06:05:43;101965.56;;;4.99;100.00
3206;BME280;1615;53.602;11.418;2024-03-17T06:08:11;101982.53;;;5.13;100.00
3206;BME280;1615;53.602;11.418;2024-03-17T06:10:37;101966.66;;;5.10;100.00
3206;BME280;1615;53.602;11.418;2024-03-17T06:13:03;101975.47;;;5.23;100.00
3206;BME280;1615;53.602;11.418;2024-03-17T06:15:29;101992.22;;;5.38;100.00
3206;BME280;1615;53.602;11.418;2024-03-17T06:17:55;101910.38;;;4.99;100.00
3206;BME280;1615;53.602;11.418;2024-03-17T06:20:21;101990.84;;;5.47;100.00
3206;BME280;1615;53.602;11.418;2024-03-17T06:22:48;101980.34;;;5.51;100.00
3206;BME280;1615;53.602;11.418;2024-03-17T06:25:14;101989.44;;;5.56;100.00
3206;BME280;1615;53.602;11.418;2024-03-17T06:27:39;101972.03;;;5.46;100.00
3206;BME280;1615;53.602;11.418;2024-03-17T06:30:05;101986.84;;;5.50;100.00
3206;BME280;1615;53.602;11.418;2024-03-17T06:32:32;102005.69;;;5.63;100.00
3206;BME280;1615;53.602;11.418;2024-03-17T06:34:58;102009.41;;;5.68;100.00
3206;BME280;1615;53.602;11.418;2024-03-17T06:37:24;101962.69;;;5.42;100.00
3206;BME280;1615;53.602;11.418;2024-03-17T06:39:49;101982.72;;;5.59;100.00
3206;BME280;1615;53.602;11.418;2024-03-17T06:42:15;101982.72;;;5.59;100.00
3206;BME280;1615;53.602;11.418;2024-03-17T06:44:40;101993.44;;;5.72;100.00
3206;BME280;1615;53.602;11.418;2024-03-17T06:47:06;102011.94;;;5.81;100.00
3206;BME280;1615;53.602;11.418;2024-03-17T06:49:31;101981.34;;;5.68;100.00
3206;BME280;1615;53.602;11.418;2024-03-17T06:51:56;102012.44;;;5.90;100.00
3206;BME280;1615;53.602;11.418;2024-03-17T06:54:21;101997.50;;;5.81;100.00
3206;BME280;1615;53.602;11.418;2024-03-17T06:56:47;102032.63;;;6.12;100.00
3206;BME280;1615;53.602;11.418;2024-03-17T06:59:12;102012.66;;;6.29;100.00
3206;BME280;1615;53.602;11.418;2024-03-17T07:01:38;102014.66;;;6.34;100.00
3206;BME280;1615;53.602;11.418;2024-03-17T07:04:03;102018.81;;;6.48;100.00
3206;BME280;1615;53.602;11.418;2024-03-17T07:06:29;101991.22;;;6.33;100.00
3206;BME280;1615;53.602;11.418;2024-03-17T07:08:54;102035.88;;;6.55;100.00
3206;BME280;1615;53.602;11.418;2024-03-17T07:11:20;101985.19;;;6.31;100.00
3206;BME280;1615;53.602;11.418;2024-03-17T07:13:48;102029.03;;;6.75;100.00
3206;BME280;1615;53.602;11.418;2024-03-17T07:16:16;101972.41;;;6.43;100.00
3206;BME280;1615;53.602;11.418;2024-03-17T07:18:41;101982.47;;;6.54;100.00
3206;BME280;1615;53.602;11.418;2024-03-17T07:21:08;102051.16;;;7.02;100.00
3206;BME280;1615;53.602;11.418;2024-03-17T07:23:35;102035.88;;;7.12;100.00
3206;BME280;1615;53.602;11.418;2024-03-17T07:26:02;101923.72;;;6.58;100.00
3206;BME280;1615;53.602;11.418;2024-03-17T07:28:30;102029.75;;;7.45;100.00
3206;BME280;1615;53.602;11.418;2024-03-17T07:30:57;102026.97;;;7.56;100.00
3206;BME280;1615;53.602;11.418;2024-03-17T07:33:23;102025.66;;;7.59;100.00
3206;BME280;1615;53.602;11.418;2024-03-17T07:35:53;101956.75;;;7.24;100.00
3206;BME280;1615;53.602;11.418;2024-03-17T07:38:20;102020.59;;;7.79;100.00
3206;BME280;1615;53.602;11.418;2024-03-17T07:40:56;102030.78;;;7.83;100.00
3206;BME280;1615;53.602;11.418;2024-03-17T07:43:22;101893.38;;;6.66;97.02
3206;BME280;1615;53.602;11.418;2024-03-17T07:46:02;101803.47;;;6.15;94.95
3206;BME280;1615;53.602;11.418;2024-03-17T07:48:29;101977.44;;;6.97;95.11
3206;BME280;1615;53.602;11.418;2024-03-17T07:50:56;101945.22;;;6.94;95.18
3206;BME280;1615;53.602;11.418;2024-03-17T07:53:22;102046.31;;;7.55;94.52
3206;BME280;1615;53.602;11.418;2024-03-17T07:56:17;102058.31;;;7.54;94.69
3206;BME280;1615;53.602;11.418;2024-03-17T07:58:43;102057.97;;;7.39;93.29
3206;BME280;1615;53.602;11.418;2024-03-17T08:01:12;102050.81;;;7.61;93.70
3206;BME280;1615;53.602;11.418;2024-03-17T08:03:39;102050.38;;;7.80;91.83
3206;BME280;1615;53.602;11.418;2024-03-17T08:06:06;102033.38;;;7.90;92.24
3206;BME280;1615;53.602;11.418;2024-03-17T08:08:32;102058.22;;;8.05;90.30
3206;BME280;1615;53.602;11.418;2024-03-17T08:10:58;101999.56;;;7.79;90.84
3206;BME280;1615;53.602;11.418;2024-03-17T08:13:24;102055.41;;;8.28;88.89
3206;BME280;1615;53.602;11.418;2024-03-17T08:15:57;102024.47;;;8.11;86.90
3206;BME280;1615;53.602;11.418;2024-03-17T08:18:23;102028.31;;;8.26;87.00
3206;BME280;1615;53.602;11.418;2024-03-17T08:20:48;102096.94;;;8.30;86.05
3206;BME280;1615;53.602;11.418;2024-03-17T08:23:14;102032.84;;;8.21;82.74
3206;BME280;1615;53.602;11.418;2024-03-17T08:25:40;102002.59;;;7.94;81.12
3206;BME280;1615;53.602;11.418;2024-03-17T08:28:06;102051.03;;;8.27;81.27
3206;BME280;1615;53.602;11.418;2024-03-17T08:30:34;101917.09;;;7.61;80.27
3206;BME280;1615;53.602;11.418;2024-03-17T08:33:00;101990.31;;;8.25;78.19
3206;BME280;1615;53.602;11.418;2024-03-17T08:35:26;102088.03;;;8.84;76.93
3206;BME280;1615;53.602;11.418;2024-03-17T08:37:51;102058.63;;;8.58;76.04
3206;BME280;1615;53.602;11.418;2024-03-17T08:40:19;102022.09;;;8.31;76.88
3206;BME280;1615;53.602;11.418;2024-03-17T08:42:44;102052.19;;;8.47;78.29
3206;BME280;1615;53.602;11.418;2024-03-17T08:45:11;102014.56;;;8.54;77.75
3206;BME280;1615;53.602;11.418;2024-03-17T08:47:36;102047.50;;;8.97;75.97
3206;BME280;1615;53.602;11.418;2024-03-17T08:50:02;101958.25;;;8.37;74.72
3206;BME280;1615;53.602;11.418;2024-03-17T08:52:30;102066.44;;;8.66;73.44
3206;BME280;1615;53.602;11.418;2024-03-17T08:54:57;102049.44;;;8.80;73.22
3206;BME280;1615;53.602;11.418;2024-03-17T08:57:22;102027.34;;;8.49;72.83
3206;BME280;1615;53.602;11.418;2024-03-17T08:59:48;101928.13;;;7.82;73.59
3206;BME280;1615;53.602;11.418;2024-03-17T09:02:14;102057.31;;;8.77;74.59
3206;BME280;1615;53.602;11.418;2024-03-17T09:04:43;102016.75;;;8.52;71.76
3206;BME280;1615;53.602;11.418;2024-03-17T09:07:08;102063.78;;;8.71;71.16
3206;BME280;1615;53.602;11.418;2024-03-17T09:09:33;101993.22;;;8.35;71.18
3206;BME280;1615;53.602;11.418;2024-03-17T09:11:59;102035.91;;;8.74;72.24
3206;BME280;1615;53.602;11.418;2024-03-17T09:14:24;102040.75;;;8.83;71.44
3206;BME280;1615;53.602;11.418;2024-03-17T09:16:50;102062.50;;;8.95;71.75
3206;BME280;1615;53.602;11.418;2024-03-17T09:19:15;102070.91;;;8.72;70.59
3206;BME280;1615;53.602;11.418;2024-03-17T09:21:40;102042.75;;;8.55;71.51
3206;BME280;1615;53.602;11.418;2024-03-17T09:24:09;102064.50;;;8.66;73.04
3206;BME280;1615;53.602;11.418;2024-03-17T09:26:35;102059.56;;;8.80;72.34
3206;BME280;1615;53.602;11.418;2024-03-17T09:29:01;102042.63;;;8.83;71.79
3206;BME280;1615;53.602;11.418;2024-03-17T09:31:26;102051.34;;;8.80;71.23
3206;BME280;1615;53.602;11.418;2024-03-17T09:33:51;102053.97;;;8.91;71.14
3206;BME280;1615;53.602;11.418;2024-03-17T09:36:17;102021.53;;;8.78;71.55
3206;BME280;1615;53.602;11.418;2024-03-17T09:38:43;102059.28;;;8.98;73.21
3206;BME280;1615;53.602;11.418;2024-03-17T09:41:21;102056.66;;;8.70;72.17
3206;BME280;1615;53.602;11.418;2024-03-17T09:43:48;102050.03;;;8.66;71.76
3206;BME280;1615;53.602;11.418;2024-03-17T09:46:14;101941.88;;;7.87;72.12
3206;BME280;1615;53.602;11.418;2024-03-17T09:48:40;102035.47;;;8.44;71.43
3206;BME280;1615;53.602;11.418;2024-03-17T09:51:05;102036.53;;;8.59;71.97
3206;BME280;1615;53.602;11.418;2024-03-17T09:53:34;102011.25;;;8.36;70.72
3206;BME280;1615;53.602;11.418;2024-03-17T09:56:08;102067.75;;;8.80;71.52
3206;BME280;1615;53.602;11.418;2024-03-17T09:58:34;102053.00;;;8.81;70.99
3206;BME280;1615;53.602;11.418;2024-03-17T10:01:00;102070.06;;;8.88;70.97
3206;BME280;1615;53.602;11.418;2024-03-17T10:06:30;102012.31;;;8.68;69.89
3206;BME280;1615;53.602;11.418;2024-03-17T10:08:59;102060.34;;;8.97;69.53
3206;BME280;1615;53.602;11.418;2024-03-17T10:11:35;102062.25;;;8.96;69.88
3206;BME280;1615;53.602;11.418;2024-03-17T10:14:05;102061.97;;;9.14;70.11
3206;BME280;1615;53.602;11.418;2024-03-17T10:16:33;102041.22;;;8.97;69.95
3206;BME280;1615;53.602;11.418;2024-03-17T10:19:16;102054.97;;;9.02;70.01
3206;BME280;1615;53.602;11.418;2024-03-17T10:21:47;102031.47;;;8.68;68.85
3206;BME280;1615;53.602;11.418;2024-03-17T10:24:22;102030.97;;;8.71;68.50
3206;BME280;1615;53.602;11.418;2024-03-17T10:26:55;102057.63;;;8.97;68.15
3206;BME280;1615;53.602;11.418;2024-03-17T10:29:24;102068.59;;;9.18;67.48
3206;BME280;1615;53.602;11.418;2024-03-17T10:32:02;102044.19;;;8.79;66.67
3206;BME280;1615;53.602;11.418;2024-03-17T10:34:29;102066.31;;;9.10;66.49
3206;BME280;1615;53.602;11.418;2024-03-17T10:37:11;102057.78;;;9.07;66.95
3206;BME280;1615;53.602;11.418;2024-03-17T10:39:40;102055.69;;;9.14;67.58
3206;BME280;1615;53.602;11.418;2024-03-17T10:42:07;102065.03;;;9.18;66.33
3206;BME280;1615;53.602;11.418;2024-03-17T10:44:36;102071.09;;;9.20;65.75
3206;BME280;1615;53.602;11.418;2024-03-17T10:47:02;102075.13;;;9.34;65.40
3206;BME280;1615;53.602;11.418;2024-03-17T10:49:31;102022.22;;;9.07;64.90
3206;BME280;1615;53.602;11.418;2024-03-17T10:51:59;102071.00;;;9.15;65.76
3206;BME280;1615;53.602;11.418;2024-03-17T10:54:25;101999.34;;;8.58;66.66
3206;BME280;1615;53.602;11.418;2024-03-17T10:57:02;102077.63;;;9.19;66.71
3206;BME280;1615;53.602;11.418;2024-03-17T10:59:41;102080.31;;;9.14;65.45
3206;BME280;1615;53.602;11.418;2024-03-17T11:02:21;102030.44;;;8.90;65.74
3206;BME280;1615;53.602;11.418;2024-03-17T11:04:55;102080.44;;;9.24;64.50
3206;BME280;1615;53.602;11.418;2024-03-17T11:07:21;102066.69;;;9.19;64.34
3206;BME280;1615;53.602;11.418;2024-03-17T11:09:48;102079.56;;;9.40;64.54
3206;BME280;1615;53.602;11.418;2024-03-17T11:12:42;102078.41;;;9.36;64.43
3206;BME280;1615;53.602;11.418;2024-03-17T11:21:03;102088.59;;;9.19;64.28
3206;BME280;1615;53.602;11.418;2024-03-17T11:23:41;102012.06;;;8.86;64.24
3206;BME280;1615;53.602;11.418;2024-03-17T11:26:07;102042.88;;;8.98;64.02
3206;BME280;1615;53.602;11.418;2024-03-17T11:33:58;102075.72;;;9.19;65.02
3206;BME280;1615;53.602;11.418;2024-03-17T11:36:32;102074.97;;;9.24;64.63
3206;BME280;1615;53.602;11.418;2024-03-17T11:39:08;102059.06;;;9.21;65.49
3206;BME280;1615;53.602;11.418;2024-03-17T11:41:46;102048.88;;;9.38;65.69
3206;BME280;1615;53.602;11.418;2024-03-17T11:46:50;102010.34;;;8.80;63.62
3206;BME280;1615;53.602;11.418;2024-03-17T11:51:54;102055.91;;;9.12;64.76
3206;BME280;1615;53.602;11.418;2024-03-17T11:54:27;102092.56;;;9.28;64.35
3206;BME280;1615;53.602;11.418;2024-03-17T11:57:01;102076.31;;;9.43;64.17
3206;BME280;1615;53.602;11.418;2024-03-17T11:59:27;102053.22;;;9.34;63.55
3206;BME280;1615;53.602;11.418;2024-03-17T12:01:52;102022.91;;;9.19;64.21
3206;BME280;1615;53.602;11.418;2024-03-17T12:04:21;102058.31;;;9.47;63.77
3206;BME280;1615;53.602;11.418;2024-03-17T12:06:47;102080.16;;;9.63;63.53
3206;BME280;1615;53.602;11.418;2024-03-17T12:11:59;102083.22;;;9.67;63.74
3206;BME280;1615;53.602;11.418;2024-03-17T12:14:25;102073.97;;;9.73;63.75
3206;BME280;1615;53.602;11.418;2024-03-17T12:19:17;102075.31;;;9.97;63.40
3206;BME280;1615;53.602;11.418;2024-03-17T12:21:44;102036.97;;;9.70;62.58
3206;BME280;1615;53.602;11.418;2024-03-17T12:24:15;102078.34;;;9.95;63.16
3206;BME280;1615;53.602;11.418;2024-03-17T12:26:40;102049.56;;;9.93;63.00
3206;BME280;1615;53.602;11.418;2024-03-17T12:29:22;102057.97;;;9.86;62.11
3206;BME280;1615;53.602;11.418;2024-03-17T12:31:48;102036.03;;;9.60;62.71
3206;BME280;1615;53.602;11.418;2024-03-17T12:34:13;102064.91;;;9.94;63.26
3206;BME280;1615;53.602;11.418;2024-03-17T12:36:39;101964.03;;;9.38;63.14
3206;BME280;1615;53.602;11.418;2024-03-17T12:39:31;102052.25;;;9.66;62.85
3206;BME280;1615;53.602;11.418;2024-03-17T12:42:23;102065.56;;;9.58;63.51
3206;BME280;1615;53.602;11.418;2024-03-17T12:44:50;101836.97;;;8.00;64.39
3206;BME280;1615;53.602;11.418;2024-03-17T12:47:18;102062.69;;;9.26;64.83
3206;BME280;1615;53.602;11.418;2024-03-17T12:49:45;102067.53;;;9.41;64.91
3206;BME280;1615;53.602;11.418;2024-03-17T12:52:19;101962.91;;;8.91;64.13
3206;BME280;1615;53.602;11.418;2024-03-17T12:54:45;102108.09;;;9.44;64.83
3206;BME280;1615;53.602;11.418;2024-03-17T12:57:20;102045.84;;;9.56;64.50
3206;BME280;1615;53.602;11.418;2024-03-17T13:00:16;102015.38;;;9.74;63.62
3206;BME280;1615;53.602;11.418;2024-03-17T13:02:57;102053.09;;;10.15;62.72
3206;BME280;1615;53.602;11.418;2024-03-17T13:05:23;102030.56;;;10.08;61.67
3206;BME280;1615;53.602;11.418;2024-03-17T13:07:49;102005.44;;;9.68;62.22
3206;BME280;1615;53.602;11.418;2024-03-17T13:10:19;101857.78;;;8.82;62.64
3206;BME280;1615;53.602;11.418;2024-03-17T13:12:45;102042.44;;;9.92;62.97
3206;BME280;1615;53.602;11.418;2024-03-17T13:15:16;102033.88;;;9.88;62.22
3206;BME280;1615;53.602;11.418;2024-03-17T13:17:43;102040.81;;;9.96;62.13
3206;BME280;1615;53.602;11.418;2024-03-17T13:20:13;102040.69;;;9.86;62.48
3206;BME280;1615;53.602;11.418;2024-03-17T13:22:40;102020.47;;;9.65;62.40
3206;BME280;1615;53.602;11.418;2024-03-17T13:25:17;102037.88;;;9.76;62.08
3206;BME280;1615;53.602;11.418;2024-03-17T13:27:44;102025.59;;;9.83;61.07
3206;BME280;1615;53.602;11.418;2024-03-17T13:30:14;101945.16;;;9.15;61.30
3206;BME280;1615;53.602;11.418;2024-03-17T13:32:40;102029.75;;;9.86;61.66
3206;BME280;1615;53.602;11.418;2024-03-17T13:35:14;101987.78;;;9.80;61.75